Plainville, GA (30733)

7:41 AM EST on February 14, 2016 (GMT -0500)
Hermitage Heights | | Change Station
CLOSE
Current Station
Personal Weather Station
Location: Rome, GA
Elevation: 771 ft
Nearby Weather Stations

Elev 771 ft 34.33 °N, 85.07 °W | Updated 4 minutes ago

Mostly Cloudy
Mostly Cloudy
22.5 °F
Feels Like 22 °F
N
0.0
Wind Variable Wind from NE

Today
High -- | Low -- °F
--% Chance of Precip.
Yesterday
High -- | Low -- °F
Precip. -- in
Pressure 30.38 in
Visibility 10.0 miles
Clouds Clear
Windchill 22 °F
Dew Point 12 °F
Humidity 63%
Rainfall 0.00 in
Snow Depth Not available.
7:26 AM 6:22 PM
Waxing Crescent, 41% visible
METAR KRMG 141153Z AUTO 04003KT 10SM CLR M04/M12 A3036 RMK AO2 SLP285 T10391117 11028 21039 53007
Pressure 30.38 in
Visibility 10.0 miles
Clouds Clear
Windchill 22 °F
Dew Point 12 °F
Humidity 63%
Rainfall 0.00 in
Snow Depth Not available.
7:26 AM 6:22 PM
Waxing Crescent, 41% visible
METAR KRMG 141153Z AUTO 04003KT 10SM CLR M04/M12 A3036 RMK AO2 SLP285 T10391117 11028 21039 53007

10-Day Weather Forecast

Almanac

Astronomy

Feb. 14, 2016 Rise Set
Actual Time
Civil Twilight
Nautical Twilight
Astronomical Twilight
Moon
Length of Visible Light
Length of Day
Tomorrow will be .
, % of the Moon is Illuminated

Today's Extremes

State Highs State Lows

Community

WunderPhotos

Upload Photos

1,892,775 photos uploaded!

WunderBlog® & News

Nearby

Air Quality

  Air Quality AQ Index Pollutant
Not available.

Snow Depth

Station Depth Elevation

Earthquake Activity

City Distance Mag. Time & Date
Minimum magnitude displayed is 2.5.

Coastal Water Temperatures

Place Temperature

Stations

Nearby Weather Stations

Station Location Temp. Windchill Dew Point Humidity Wind Precip. Elev Updated Type
                   

Watches & Warnings

There are currently no watches in effect.